createdAt,value
2018-01-29T00:00:14.973Z,17.80
2018-01-29T00:01:19.866Z,17.80
2018-01-29T00:02:24.695Z,17.80
2018-01-29T00:03:29.744Z,17.80
2018-01-29T00:04:34.848Z,17.80
2018-01-29T00:05:39.814Z,17.80
2018-01-29T00:06:44.851Z,17.80
2018-01-29T00:07:49.659Z,17.80
2018-01-29T00:08:55.353Z,17.80
2018-01-29T00:10:00.203Z,17.80
2018-01-29T00:11:05.113Z,17.80
2018-01-29T00:12:10.148Z,17.80
2018-01-29T00:13:15.031Z,17.80
2018-01-29T00:14:19.990Z,17.80
2018-01-29T00:15:24.978Z,17.80
2018-01-29T00:16:29.780Z,17.80
2018-01-29T00:17:34.632Z,17.80
2018-01-29T00:18:39.581Z,17.80
2018-01-29T00:19:44.545Z,17.80
2018-01-29T00:20:49.439Z,17.80
2018-01-29T00:21:54.512Z,17.80
2018-01-29T00:22:59.453Z,17.80
2018-01-29T00:24:04.546Z,17.80
2018-01-29T00:25:09.564Z,17.80
2018-01-29T00:26:14.517Z,17.80
2018-01-29T00:27:19.390Z,17.80
2018-01-29T00:28:24.327Z,17.80
2018-01-29T00:29:29.278Z,17.80
2018-01-29T00:30:34.095Z,17.80
2018-01-29T00:31:38.973Z,17.80
2018-01-29T00:32:44.066Z,17.80
2018-01-29T00:33:48.907Z,17.80
2018-01-29T00:34:53.922Z,17.70
2018-01-29T00:35:58.832Z,17.70
2018-01-29T00:37:03.612Z,17.70
2018-01-29T00:38:08.701Z,17.70
2018-01-29T00:39:13.726Z,17.70
2018-01-29T00:40:18.657Z,17.70
2018-01-29T00:41:23.736Z,17.70
2018-01-29T00:42:28.607Z,17.70
2018-01-29T00:43:33.594Z,17.70
2018-01-29T00:44:38.588Z,17.70
2018-01-29T00:45:43.450Z,17.70
2018-01-29T00:46:48.258Z,17.70
2018-01-29T00:47:53.230Z,17.70
2018-01-29T00:48:58.139Z,17.70
2018-01-29T00:50:03.211Z,17.70
2018-01-29T00:51:08.133Z,17.70
2018-01-29T00:52:13.157Z,17.70
2018-01-29T00:53:18.100Z,17.70
2018-01-29T00:54:23.161Z,17.70
2018-01-29T00:55:28.193Z,17.70
2018-01-29T00:56:33.003Z,17.70
2018-01-29T00:57:37.984Z,17.70
2018-01-29T00:58:42.773Z,17.70
2018-01-29T00:59:47.733Z,17.70
2018-01-29T01:00:52.629Z,17.70
2018-01-29T01:01:57.727Z,17.70
2018-01-29T01:03:02.589Z,17.70
2018-01-29T01:04:07.601Z,17.70
2018-01-29T01:05:12.568Z,17.70
2018-01-29T01:06:17.574Z,17.70
2018-01-29T01:07:22.347Z,17.70
2018-01-29T01:08:27.263Z,17.70
2018-01-29T01:09:32.193Z,17.70
2018-01-29T01:10:37.170Z,17.70
2018-01-29T01:11:42.039Z,17.70
2018-01-29T01:12:46.916Z,17.70
2018-01-29T01:13:51.842Z,17.70
2018-01-29T01:14:56.913Z,17.70
2018-01-29T01:16:01.926Z,17.70
2018-01-29T01:17:06.734Z,17.70
2018-01-29T01:18:11.615Z,17.70
2018-01-29T01:19:16.622Z,17.70
2018-01-29T01:20:21.834Z,17.70
2018-01-29T01:21:26.685Z,17.60
2018-01-29T01:22:31.479Z,17.60
2018-01-29T01:23:36.392Z,17.60
2018-01-29T01:24:41.726Z,17.60
2018-01-29T01:25:46.490Z,17.60
2018-01-29T01:26:51.504Z,17.60
2018-01-29T01:27:56.463Z,17.60
2018-01-29T01:29:01.437Z,17.60
2018-01-29T01:30:06.401Z,17.60
2018-01-29T01:31:11.374Z,17.60
2018-01-29T01:32:16.318Z,17.60
2018-01-29T01:33:21.104Z,17.60
2018-01-29T01:34:26.522Z,17.60
2018-01-29T01:35:31.510Z,17.60
2018-01-29T01:36:36.683Z,17.60
2018-01-29T01:37:42.160Z,17.60
2018-01-29T01:38:47.204Z,17.60
2018-01-29T01:39:52.169Z,17.60
2018-01-29T01:40:56.984Z,17.60
2018-01-29T01:42:02.361Z,17.60
2018-01-29T01:43:07.524Z,17.60
2018-01-29T01:44:12.527Z,17.60
2018-01-29T01:45:17.520Z,17.60
2018-01-29T01:46:22.482Z,17.60
2018-01-29T01:47:27.511Z,17.60
2018-01-29T01:48:32.404Z,17.60
2018-01-29T01:49:37.430Z,17.60
2018-01-29T01:50:42.288Z,17.60
2018-01-29T01:51:47.342Z,17.60
2018-01-29T01:52:52.218Z,17.60
2018-01-29T01:53:57.271Z,17.60
2018-01-29T01:55:02.495Z,17.60
2018-01-29T01:56:08.138Z,17.60
2018-01-29T01:57:13.165Z,17.60
2018-01-29T01:58:18.177Z,17.60
2018-01-29T01:59:23.178Z,17.60
2018-01-29T02:00:29.179Z,17.60
2018-01-29T02:01:34.053Z,17.60
2018-01-29T02:02:38.945Z,17.60
2018-01-29T02:03:43.793Z,17.60
2018-01-29T02:04:52.104Z,17.60
2018-01-29T02:05:56.869Z,17.60
2018-01-29T02:07:01.745Z,17.60
2018-01-29T02:08:06.735Z,17.60
2018-01-29T02:09:11.695Z,17.60
2018-01-29T02:10:16.651Z,17.60
2018-01-29T02:11:21.482Z,17.60
2018-01-29T02:12:26.375Z,17.60
2018-01-29T02:13:31.358Z,17.60
2018-01-29T02:14:36.180Z,17.60
2018-01-29T02:15:41.102Z,17.60
2018-01-29T02:16:45.887Z,17.60
2018-01-29T02:17:50.719Z,17.60
2018-01-29T02:18:55.869Z,17.60
2018-01-29T02:20:01.135Z,17.60
2018-01-29T02:21:05.958Z,17.60
2018-01-29T02:22:10.995Z,17.60
2018-01-29T02:23:16.015Z,17.60
2018-01-29T02:24:20.854Z,17.60
2018-01-29T02:25:25.660Z,17.60
2018-01-29T02:26:30.510Z,17.60
2018-01-29T02:27:35.470Z,17.60
2018-01-29T02:28:40.428Z,17.60
2018-01-29T02:29:45.331Z,17.60
2018-01-29T02:30:50.249Z,17.60
2018-01-29T02:31:55.172Z,17.50
2018-01-29T02:33:00.027Z,17.50
2018-01-29T02:34:04.781Z,17.50
2018-01-29T02:35:09.574Z,17.60
2018-01-29T02:36:14.488Z,17.50
2018-01-29T02:37:19.545Z,17.50
2018-01-29T02:38:24.343Z,17.50
2018-01-29T02:39:29.289Z,17.50
2018-01-29T02:40:34.219Z,17.50
2018-01-29T02:41:39.170Z,17.50
2018-01-29T02:42:44.128Z,17.50
2018-01-29T02:43:48.972Z,17.50
2018-01-29T02:44:53.760Z,17.50
2018-01-29T02:45:58.567Z,17.50
2018-01-29T02:47:03.415Z,17.50
2018-01-29T02:48:08.389Z,17.50
2018-01-29T02:49:13.204Z,17.50
2018-01-29T02:50:17.935Z,17.50
2018-01-29T02:51:22.710Z,17.50
2018-01-29T02:52:27.500Z,17.50
2018-01-29T02:53:32.487Z,17.50
2018-01-29T02:54:37.450Z,17.50
2018-01-29T02:55:42.982Z,17.50
2018-01-29T02:56:47.746Z,17.50
2018-01-29T02:57:52.520Z,17.50
2018-01-29T02:58:57.311Z,17.50
2018-01-29T03:00:02.295Z,17.50
2018-01-29T03:01:07.231Z,17.50
2018-01-29T03:02:12.033Z,17.60
2018-01-29T03:03:16.857Z,17.50
2018-01-29T03:04:21.777Z,17.50
2018-01-29T03:05:26.660Z,17.50
2018-01-29T03:06:31.612Z,17.50
2018-01-29T03:07:36.463Z,17.50
2018-01-29T03:08:41.289Z,17.50
2018-01-29T03:09:46.266Z,17.50
2018-01-29T03:10:51.099Z,17.50
2018-01-29T03:11:56.014Z,17.50
2018-01-29T03:13:00.834Z,17.50
2018-01-29T03:14:06.194Z,17.50
2018-01-29T03:15:11.083Z,17.50
2018-01-29T03:16:16.017Z,17.50
2018-01-29T03:17:20.980Z,17.60
2018-01-29T03:18:25.843Z,17.50
2018-01-29T03:19:30.739Z,17.60
2018-01-29T03:20:35.664Z,17.50
2018-01-29T03:21:40.688Z,17.50
2018-01-29T03:22:45.627Z,17.50
2018-01-29T03:23:50.497Z,17.50
2018-01-29T03:24:55.361Z,17.50
2018-01-29T03:26:00.201Z,17.50
2018-01-29T03:27:04.945Z,17.50
2018-01-29T03:28:09.721Z,17.50
2018-01-29T03:29:14.497Z,17.50
2018-01-29T03:30:19.226Z,17.50
2018-01-29T03:31:24.163Z,17.50
2018-01-29T03:32:29.761Z,17.50
2018-01-29T03:33:34.766Z,17.50
2018-01-29T03:34:39.635Z,17.50
2018-01-29T03:35:44.469Z,17.50
2018-01-29T03:36:49.181Z,17.50
2018-01-29T03:37:54.139Z,17.50
2018-01-29T03:38:59.055Z,17.50
2018-01-29T03:40:04.051Z,17.50
2018-01-29T03:41:08.929Z,17.50
2018-01-29T03:42:13.736Z,17.50
2018-01-29T03:43:18.467Z,17.50
2018-01-29T03:44:23.238Z,17.50
2018-01-29T03:45:28.115Z,17.50
2018-01-29T03:46:32.841Z,17.50
2018-01-29T03:47:37.654Z,17.50
2018-01-29T03:48:42.598Z,17.50
2018-01-29T03:49:47.532Z,17.50
2018-01-29T03:50:53.429Z,17.50
2018-01-29T03:51:58.469Z,17.50
2018-01-29T03:53:03.525Z,17.50
2018-01-29T03:54:08.523Z,17.50
2018-01-29T03:55:13.485Z,17.50
2018-01-29T03:56:18.291Z,17.50
2018-01-29T03:57:23.244Z,17.50
2018-01-29T03:58:28.184Z,17.50
2018-01-29T03:59:33.128Z,17.50
2018-01-29T04:00:37.885Z,17.50
2018-01-29T04:01:42.614Z,17.50
2018-01-29T04:02:47.525Z,17.50
2018-01-29T04:03:52.319Z,17.50
2018-01-29T04:04:57.080Z,17.50
2018-01-29T04:06:01.886Z,17.50
2018-01-29T04:07:06.648Z,17.50
2018-01-29T04:08:11.588Z,17.50
2018-01-29T04:09:17.710Z,17.50
2018-01-29T04:10:22.662Z,17.40
2018-01-29T04:11:27.431Z,17.50
2018-01-29T04:12:32.455Z,17.40
2018-01-29T04:13:37.327Z,17.50
2018-01-29T04:14:42.249Z,17.50
2018-01-29T04:15:47.080Z,17.50
2018-01-29T04:16:52.024Z,17.40
2018-01-29T04:17:56.756Z,17.40
2018-01-29T04:19:01.743Z,17.40
2018-01-29T04:20:06.751Z,17.40
2018-01-29T04:21:11.745Z,17.40
2018-01-29T04:22:16.898Z,17.40
2018-01-29T04:23:21.841Z,17.50
2018-01-29T04:24:26.581Z,17.50
2018-01-29T04:25:31.450Z,17.40
2018-01-29T04:26:36.329Z,17.40
2018-01-29T04:27:42.128Z,17.40
2018-01-29T04:28:47.092Z,17.50
2018-01-29T04:29:52.061Z,17.40
2018-01-29T04:30:57.110Z,17.50
2018-01-29T04:32:02.086Z,17.50
2018-01-29T04:33:06.911Z,17.40
2018-01-29T04:34:11.940Z,17.40
2018-01-29T04:35:16.865Z,17.50
2018-01-29T04:36:21.718Z,17.50
2018-01-29T04:37:26.685Z,17.50
2018-01-29T04:38:31.639Z,17.50
2018-01-29T04:39:36.456Z,17.40
2018-01-29T04:40:41.421Z,17.50
2018-01-29T04:41:46.412Z,17.40
2018-01-29T04:42:51.422Z,17.40
2018-01-29T04:43:56.332Z,17.40
2018-01-29T04:45:01.303Z,17.40
2018-01-29T04:46:06.946Z,17.40
2018-01-29T04:47:12.466Z,17.40
2018-01-29T04:48:17.321Z,17.40
2018-01-29T04:49:22.285Z,17.40
2018-01-29T04:50:27.075Z,17.40
2018-01-29T04:51:31.957Z,17.50
2018-01-29T04:52:36.909Z,17.40
2018-01-29T04:53:41.791Z,17.40
2018-01-29T04:54:46.699Z,17.40
2018-01-29T04:55:51.434Z,17.40
2018-01-29T04:56:56.345Z,17.40
2018-01-29T04:58:01.223Z,17.40
2018-01-29T04:59:06.012Z,17.40
2018-01-29T05:00:11.028Z,17.40
2018-01-29T05:01:15.768Z,17.40
2018-01-29T05:02:20.603Z,17.40
2018-01-29T05:03:25.589Z,17.40
2018-01-29T05:04:31.207Z,17.40
2018-01-29T05:05:36.060Z,17.40
2018-01-29T05:06:40.911Z,17.40
2018-01-29T05:07:45.875Z,17.40
2018-01-29T05:08:50.681Z,17.40
2018-01-29T05:09:55.634Z,17.40
2018-01-29T05:11:00.450Z,17.40
2018-01-29T05:12:05.317Z,17.40
2018-01-29T05:13:10.274Z,17.40
2018-01-29T05:14:15.435Z,17.40
2018-01-29T05:15:20.301Z,17.40
2018-01-29T05:16:25.302Z,17.40
2018-01-29T05:17:30.212Z,17.40
2018-01-29T05:18:35.210Z,17.40
2018-01-29T05:19:40.217Z,17.40
2018-01-29T05:20:45.164Z,17.40
2018-01-29T05:21:50.094Z,17.40
2018-01-29T05:22:55.416Z,17.40
2018-01-29T05:24:00.320Z,17.40
2018-01-29T05:25:05.308Z,17.40
2018-01-29T05:26:10.365Z,17.40
2018-01-29T05:27:15.344Z,17.40
2018-01-29T05:28:20.285Z,17.40
2018-01-29T05:29:25.116Z,17.40
2018-01-29T05:30:30.005Z,17.40
2018-01-29T05:31:34.781Z,17.40
2018-01-29T05:32:39.715Z,17.40
2018-01-29T05:33:44.529Z,17.40
2018-01-29T05:34:49.473Z,17.40
2018-01-29T05:35:54.236Z,17.40
2018-01-29T05:36:58.974Z,17.40
2018-01-29T05:38:03.761Z,17.40
2018-01-29T05:39:08.550Z,17.40
2018-01-29T05:40:13.327Z,17.40
2018-01-29T05:41:19.151Z,17.40
2018-01-29T05:42:24.001Z,17.40
2018-01-29T05:43:28.957Z,17.40
2018-01-29T05:44:33.904Z,17.40
2018-01-29T05:45:38.722Z,17.40
2018-01-29T05:46:43.728Z,17.40
2018-01-29T05:47:48.732Z,17.40
2018-01-29T05:48:53.549Z,17.40
2018-01-29T05:49:58.512Z,17.40
2018-01-29T05:51:03.424Z,17.40
2018-01-29T05:52:08.569Z,17.40
2018-01-29T05:53:13.533Z,17.40
2018-01-29T05:54:18.397Z,17.40
2018-01-29T05:55:23.213Z,17.40
2018-01-29T05:56:28.128Z,17.40
2018-01-29T05:57:33.041Z,17.40
2018-01-29T05:58:38.007Z,17.40
2018-01-29T05:59:43.343Z,17.40
2018-01-29T06:00:51.229Z,17.40
2018-01-29T06:01:56.084Z,17.40
2018-01-29T06:03:01.152Z,17.40
2018-01-29T06:04:06.031Z,17.40
2018-01-29T06:05:10.903Z,17.40
2018-01-29T06:06:15.750Z,17.40
2018-01-29T06:07:20.641Z,17.40
2018-01-29T06:08:25.491Z,17.40
2018-01-29T06:09:30.606Z,17.40
2018-01-29T06:10:35.607Z,17.40
2018-01-29T06:11:40.609Z,17.40
2018-01-29T06:12:45.432Z,17.40
2018-01-29T06:13:50.373Z,17.40
2018-01-29T06:14:55.143Z,17.40
2018-01-29T06:16:00.009Z,17.40
2018-01-29T06:17:05.037Z,17.40
2018-01-29T06:18:10.057Z,17.50
2018-01-29T06:19:15.098Z,17.50
2018-01-29T06:20:20.056Z,17.50
2018-01-29T06:21:24.919Z,17.60
2018-01-29T06:22:29.845Z,17.60
2018-01-29T06:23:35.121Z,17.70
2018-01-29T06:24:39.965Z,17.70
2018-01-29T06:25:45.180Z,17.80
2018-01-29T06:26:50.179Z,17.80
2018-01-29T06:27:55.202Z,17.90
2018-01-29T06:29:00.880Z,17.90
2018-01-29T06:30:05.765Z,18.00
2018-01-29T06:31:10.910Z,18.10
2018-01-29T06:32:16.002Z,18.10
2018-01-29T06:33:20.942Z,18.20
2018-01-29T06:34:26.195Z,18.30
2018-01-29T06:35:31.018Z,18.30
2018-01-29T06:36:35.962Z,18.40
2018-01-29T06:37:40.785Z,18.50
2018-01-29T06:38:45.857Z,18.60
2018-01-29T06:39:50.746Z,18.70
2018-01-29T06:40:55.612Z,18.80
2018-01-29T06:42:01.062Z,18.80
2018-01-29T06:43:06.112Z,18.90
2018-01-29T06:44:10.976Z,18.90
2018-01-29T06:45:15.885Z,18.90
2018-01-29T06:46:20.833Z,18.90
2018-01-29T06:47:25.828Z,19.00
2018-01-29T06:48:30.845Z,19.00
2018-01-29T06:49:35.822Z,19.00
2018-01-29T06:50:40.820Z,19.10
2018-01-29T06:51:46.145Z,19.10
2018-01-29T06:52:52.223Z,19.10
2018-01-29T06:53:58.240Z,19.10
2018-01-29T06:55:03.289Z,19.00
2018-01-29T06:56:08.385Z,19.00
2018-01-29T06:57:13.511Z,18.90
2018-01-29T06:58:18.529Z,18.90
2018-01-29T06:59:24.189Z,18.90
2018-01-29T07:00:30.510Z,18.90
2018-01-29T07:01:36.898Z,18.90
2018-01-29T07:02:43.064Z,18.90
2018-01-29T07:03:49.059Z,18.90
2018-01-29T07:04:55.177Z,18.90
2018-01-29T07:06:00.646Z,18.90
2018-01-29T07:07:06.542Z,18.90
2018-01-29T07:08:11.930Z,18.90
2018-01-29T07:09:18.019Z,18.90
2018-01-29T07:10:23.907Z,18.90
2018-01-29T07:11:28.753Z,18.90
2018-01-29T07:12:33.818Z,18.90
2018-01-29T07:13:38.701Z,18.90
2018-01-29T07:14:43.871Z,18.90
2018-01-29T07:15:48.940Z,18.90
2018-01-29T07:16:54.540Z,18.90
2018-01-29T07:18:00.374Z,18.90
2018-01-29T07:19:06.077Z,18.90
2018-01-29T07:20:11.432Z,19.00
2018-01-29T07:21:16.845Z,19.00
2018-01-29T07:22:22.189Z,19.00
2018-01-29T07:23:26.975Z,19.00
2018-01-29T07:24:32.092Z,19.00
2018-01-29T07:25:37.148Z,19.00
2018-01-29T07:26:42.159Z,19.00
2018-01-29T07:27:47.234Z,19.00
2018-01-29T07:28:52.135Z,19.00
2018-01-29T07:29:57.144Z,19.00
2018-01-29T07:31:02.064Z,19.00
2018-01-29T07:32:07.179Z,19.10
2018-01-29T07:33:12.080Z,19.00
2018-01-29T07:34:16.942Z,19.00
2018-01-29T07:35:22.113Z,19.00
2018-01-29T07:36:27.165Z,19.00
2018-01-29T07:37:32.248Z,19.00
2018-01-29T07:38:37.323Z,19.00
2018-01-29T07:39:42.552Z,19.00
2018-01-29T07:40:47.600Z,19.00
2018-01-29T07:41:53.007Z,19.00
2018-01-29T07:42:58.301Z,19.00
2018-01-29T07:44:03.401Z,19.00
2018-01-29T07:45:08.476Z,19.00
2018-01-29T07:46:13.547Z,19.00
2018-01-29T07:47:18.667Z,18.90
2018-01-29T07:48:23.750Z,19.00
2018-01-29T07:49:28.845Z,19.00
2018-01-29T07:50:33.986Z,19.00
2018-01-29T07:51:39.029Z,18.90
2018-01-29T07:52:44.132Z,18.90
2018-01-29T07:53:49.334Z,18.90
2018-01-29T07:54:54.466Z,18.90
2018-01-29T07:55:59.538Z,18.90
2018-01-29T07:57:04.671Z,18.90
2018-01-29T07:58:09.823Z,18.80
2018-01-29T07:59:14.947Z,18.80
2018-01-29T08:00:20.092Z,18.80
2018-01-29T08:01:25.208Z,18.80
2018-01-29T08:02:30.243Z,18.80
2018-01-29T08:03:35.932Z,18.80
2018-01-29T08:04:41.048Z,18.80
2018-01-29T08:05:46.185Z,18.80
2018-01-29T08:06:51.263Z,18.80
2018-01-29T08:07:56.377Z,18.80
2018-01-29T08:09:02.005Z,18.80
2018-01-29T08:10:07.562Z,18.80
2018-01-29T08:11:12.997Z,18.80
2018-01-29T08:12:18.093Z,18.90
2018-01-29T08:13:23.333Z,18.80
2018-01-29T08:14:28.389Z,18.90
2018-01-29T08:15:33.477Z,18.90
2018-01-29T08:16:38.816Z,18.90
2018-01-29T08:17:43.892Z,18.90
2018-01-29T08:18:49.094Z,18.90
2018-01-29T08:19:54.165Z,18.90
2018-01-29T08:20:59.356Z,18.90
2018-01-29T08:22:04.397Z,18.80
2018-01-29T08:23:09.554Z,18.90
2018-01-29T08:24:14.563Z,18.90
2018-01-29T08:25:19.890Z,18.80
2018-01-29T08:26:24.960Z,18.80
2018-01-29T08:27:29.991Z,18.80
2018-01-29T08:28:35.061Z,18.80
2018-01-29T08:29:40.153Z,18.80
2018-01-29T08:30:45.156Z,18.80
2018-01-29T08:31:50.173Z,18.80
2018-01-29T08:32:55.200Z,18.80
2018-01-29T08:34:00.215Z,18.80
2018-01-29T08:35:05.389Z,18.70
2018-01-29T08:36:10.392Z,18.70
2018-01-29T08:37:15.480Z,18.70
2018-01-29T08:38:20.517Z,18.70
2018-01-29T08:39:25.615Z,18.70
2018-01-29T08:40:30.644Z,18.70
2018-01-29T08:41:35.687Z,18.70
2018-01-29T08:42:40.770Z,18.70
2018-01-29T08:43:45.892Z,18.70
2018-01-29T08:44:50.998Z,18.70
2018-01-29T08:45:56.095Z,18.70
2018-01-29T08:47:01.150Z,18.70
2018-01-29T08:48:06.184Z,18.70
2018-01-29T08:49:11.258Z,18.70
2018-01-29T08:50:16.351Z,18.70
2018-01-29T08:51:21.469Z,18.70
2018-01-29T08:52:26.520Z,18.70
2018-01-29T08:53:31.654Z,18.70
2018-01-29T08:54:36.796Z,18.60
2018-01-29T08:55:41.849Z,18.60
2018-01-29T08:56:46.944Z,18.60
2018-01-29T08:57:51.991Z,18.60
2018-01-29T08:58:57.067Z,18.60
2018-01-29T09:00:02.195Z,18.70
2018-01-29T09:01:07.219Z,18.70
2018-01-29T09:02:12.329Z,18.60
2018-01-29T09:03:17.574Z,18.60
2018-01-29T09:04:22.600Z,18.60
2018-01-29T09:05:27.583Z,18.60
2018-01-29T09:06:32.620Z,18.60
2018-01-29T09:07:37.676Z,18.60
2018-01-29T09:08:42.849Z,18.60
2018-01-29T09:09:47.892Z,18.60
2018-01-29T09:10:53.028Z,18.60
2018-01-29T09:11:58.141Z,18.60
2018-01-29T09:13:03.208Z,18.60
2018-01-29T09:14:08.291Z,18.60
2018-01-29T09:15:13.326Z,18.60
2018-01-29T09:16:18.346Z,18.60
2018-01-29T09:17:23.400Z,18.50
2018-01-29T09:18:28.385Z,18.50
2018-01-29T09:19:33.395Z,18.50
2018-01-29T09:20:38.466Z,18.50
2018-01-29T09:21:43.748Z,18.50
2018-01-29T09:22:48.802Z,18.50
2018-01-29T09:23:53.836Z,18.50
2018-01-29T09:24:58.928Z,18.50
2018-01-29T09:26:04.104Z,18.50
2018-01-29T09:27:09.186Z,18.50
2018-01-29T09:28:14.278Z,18.50
2018-01-29T09:29:19.282Z,18.50
2018-01-29T09:30:24.353Z,18.50
2018-01-29T09:31:29.456Z,18.50
2018-01-29T09:32:34.474Z,18.40
2018-01-29T09:33:39.465Z,18.40
2018-01-29T09:34:44.530Z,18.40
2018-01-29T09:35:49.704Z,18.40
2018-01-29T09:36:54.810Z,18.40
2018-01-29T09:37:59.877Z,18.40
2018-01-29T09:39:04.967Z,18.30
2018-01-29T09:40:10.098Z,18.40
2018-01-29T09:41:15.318Z,18.40
2018-01-29T09:42:20.467Z,18.30
2018-01-29T09:43:25.594Z,18.30
2018-01-29T09:44:30.751Z,18.30
2018-01-29T09:45:37.478Z,18.30
2018-01-29T09:46:42.593Z,18.40
2018-01-29T09:47:47.859Z,18.40
2018-01-29T09:48:53.124Z,18.40
2018-01-29T09:49:58.320Z,18.40
2018-01-29T09:51:03.514Z,18.30
2018-01-29T09:52:08.741Z,18.40
2018-01-29T09:53:14.008Z,18.40
2018-01-29T09:54:19.249Z,18.40
2018-01-29T09:55:24.556Z,18.40
2018-01-29T09:56:29.795Z,18.40
2018-01-29T09:57:35.007Z,18.40
2018-01-29T09:58:40.332Z,18.40
2018-01-29T09:59:45.486Z,18.40
2018-01-29T10:00:53.735Z,18.40
2018-01-29T10:01:58.882Z,18.40
2018-01-29T10:03:04.118Z,18.40
2018-01-29T10:04:09.425Z,18.40
2018-01-29T10:05:14.475Z,18.40
2018-01-29T10:06:19.507Z,18.50
2018-01-29T10:07:24.639Z,18.50
2018-01-29T10:08:29.878Z,18.40
2018-01-29T10:09:35.009Z,18.40
2018-01-29T10:10:39.987Z,18.50
2018-01-29T10:11:44.945Z,18.40
2018-01-29T10:12:49.863Z,18.40
2018-01-29T10:13:54.950Z,18.50
2018-01-29T10:15:00.174Z,18.50
2018-01-29T10:16:05.246Z,18.40
2018-01-29T10:17:10.282Z,18.40
2018-01-29T10:18:15.401Z,18.40
2018-01-29T10:19:20.313Z,18.40
2018-01-29T10:20:25.443Z,18.40
2018-01-29T10:21:30.320Z,18.40
2018-01-29T10:22:35.140Z,18.40
2018-01-29T10:23:40.110Z,18.40
2018-01-29T10:24:45.241Z,18.40
2018-01-29T10:25:50.057Z,18.40
2018-01-29T10:26:55.287Z,18.40
2018-01-29T10:28:00.068Z,18.40
2018-01-29T10:29:04.895Z,18.30
2018-01-29T10:30:09.972Z,18.20
2018-01-29T10:31:14.870Z,18.10
2018-01-29T10:32:19.793Z,18.10
2018-01-29T10:33:24.824Z,18.00
2018-01-29T10:34:29.679Z,17.90
2018-01-29T10:35:34.850Z,17.90
2018-01-29T10:36:39.787Z,17.90
2018-01-29T10:37:44.861Z,17.80
2018-01-29T10:38:49.830Z,17.80
2018-01-29T10:39:54.870Z,17.80
2018-01-29T10:40:59.826Z,17.70
2018-01-29T10:42:04.789Z,17.70
2018-01-29T10:43:09.606Z,17.70
2018-01-29T10:44:14.617Z,17.70
2018-01-29T10:45:19.710Z,17.80
2018-01-29T10:46:24.574Z,17.80
2018-01-29T10:47:29.414Z,17.90
2018-01-29T10:48:34.490Z,17.90
2018-01-29T10:49:39.473Z,17.90
2018-01-29T10:50:44.488Z,18.00
2018-01-29T10:51:49.593Z,18.00
2018-01-29T10:52:54.588Z,18.00
2018-01-29T10:53:59.515Z,18.00
2018-01-29T10:55:04.497Z,18.00
2018-01-29T10:56:09.377Z,18.00
2018-01-29T10:57:14.543Z,18.00
2018-01-29T10:58:19.560Z,18.10
2018-01-29T10:59:24.448Z,18.10
2018-01-29T11:00:29.311Z,18.10
2018-01-29T11:01:34.362Z,18.10
2018-01-29T11:02:39.513Z,18.00
2018-01-29T11:03:44.471Z,18.10
2018-01-29T11:04:49.469Z,18.10
2018-01-29T11:05:54.533Z,18.10
2018-01-29T11:07:00.267Z,18.10
2018-01-29T11:08:05.094Z,18.10
2018-01-29T11:09:10.220Z,18.10
2018-01-29T11:10:15.253Z,18.10
2018-01-29T11:11:20.174Z,18.10
2018-01-29T11:12:25.108Z,18.10
2018-01-29T11:13:30.178Z,18.10
2018-01-29T11:14:35.319Z,18.10
2018-01-29T11:15:40.115Z,18.00
2018-01-29T11:16:45.301Z,18.00
2018-01-29T11:17:50.419Z,18.00
2018-01-29T11:18:55.504Z,18.00
2018-01-29T11:20:00.614Z,18.00
2018-01-29T11:21:05.491Z,18.00
2018-01-29T11:22:10.507Z,18.00
2018-01-29T11:23:15.541Z,18.00
2018-01-29T11:24:21.549Z,18.00
2018-01-29T11:25:27.256Z,17.90
2018-01-29T11:26:32.306Z,17.90
2018-01-29T11:27:37.641Z,17.90
2018-01-29T11:28:42.797Z,17.90
2018-01-29T11:29:47.878Z,17.90
2018-01-29T11:30:52.842Z,17.90
2018-01-29T11:31:57.965Z,17.80
2018-01-29T11:33:04.245Z,17.80
2018-01-29T11:34:09.304Z,17.80
2018-01-29T11:35:14.382Z,17.80
2018-01-29T11:36:20.374Z,17.80
2018-01-29T11:37:25.445Z,17.80
2018-01-29T11:38:30.329Z,17.80
2018-01-29T11:39:35.246Z,17.90
2018-01-29T11:40:40.106Z,17.90
2018-01-29T11:41:45.191Z,17.90
2018-01-29T11:42:50.377Z,17.90
2018-01-29T11:43:55.327Z,17.90
2018-01-29T11:45:00.764Z,17.90
2018-01-29T11:46:05.669Z,17.90
2018-01-29T11:47:10.532Z,17.90
2018-01-29T11:48:15.483Z,17.90
2018-01-29T11:49:20.349Z,17.90
2018-01-29T11:50:25.225Z,17.90
2018-01-29T11:51:30.280Z,17.90
2018-01-29T11:52:36.037Z,17.90
2018-01-29T11:53:41.148Z,17.90
2018-01-29T11:54:46.157Z,17.90
2018-01-29T11:55:51.428Z,17.90
2018-01-29T11:56:56.375Z,17.90
2018-01-29T11:58:01.398Z,17.90
2018-01-29T11:59:06.354Z,17.90
2018-01-29T12:00:11.435Z,17.90
2018-01-29T12:01:17.512Z,17.90
2018-01-29T12:02:22.569Z,17.90
2018-01-29T12:03:27.771Z,17.90
2018-01-29T12:04:32.850Z,17.90
2018-01-29T12:05:37.966Z,17.90
2018-01-29T12:06:43.196Z,17.90
2018-01-29T12:07:48.572Z,17.90
2018-01-29T12:08:53.733Z,17.90
2018-01-29T12:09:59.049Z,17.90
2018-01-29T12:11:04.117Z,17.90
2018-01-29T12:12:09.166Z,17.90
2018-01-29T12:13:14.261Z,17.90
2018-01-29T12:14:19.224Z,17.90
2018-01-29T12:15:24.278Z,17.90
2018-01-29T12:16:30.529Z,17.90
2018-01-29T12:17:35.690Z,17.90
2018-01-29T12:18:40.664Z,17.90
2018-01-29T12:19:45.759Z,17.90
2018-01-29T12:20:51.144Z,17.90
2018-01-29T12:21:56.192Z,17.90
2018-01-29T12:23:01.370Z,17.90
2018-01-29T12:24:06.316Z,17.90
2018-01-29T12:25:11.521Z,17.90
2018-01-29T12:26:16.604Z,17.90
2018-01-29T12:27:21.549Z,17.90
2018-01-29T12:28:26.697Z,17.80
2018-01-29T12:29:31.652Z,17.80
2018-01-29T12:30:36.728Z,17.90
2018-01-29T12:31:42.006Z,17.90
2018-01-29T12:32:47.027Z,17.90
2018-01-29T12:33:52.028Z,17.90
2018-01-29T12:34:57.079Z,17.90
2018-01-29T12:36:02.132Z,17.80
2018-01-29T12:37:07.385Z,17.80
2018-01-29T12:38:12.364Z,17.80
2018-01-29T12:39:17.417Z,17.80
2018-01-29T12:40:22.496Z,17.90
2018-01-29T12:41:27.505Z,17.80
2018-01-29T12:42:32.545Z,17.80
2018-01-29T12:43:37.530Z,17.80
2018-01-29T12:44:42.391Z,17.80
2018-01-29T12:45:47.225Z,17.90
2018-01-29T12:46:52.107Z,17.90
2018-01-29T12:47:57.176Z,17.90
2018-01-29T12:49:02.001Z,17.90
2018-01-29T12:50:06.875Z,17.90
2018-01-29T12:51:11.942Z,17.90
2018-01-29T12:52:16.955Z,17.90
2018-01-29T12:53:21.815Z,17.90
2018-01-29T12:54:26.883Z,17.90
2018-01-29T12:55:31.964Z,17.90
2018-01-29T12:56:36.994Z,17.90
2018-01-29T12:57:41.859Z,17.90
2018-01-29T12:58:46.821Z,17.90
2018-01-29T12:59:51.904Z,17.80
2018-01-29T13:00:56.808Z,17.90
2018-01-29T13:02:01.745Z,17.80
2018-01-29T13:03:06.643Z,17.80
2018-01-29T13:04:11.683Z,17.80
2018-01-29T13:05:16.761Z,17.80
2018-01-29T13:06:21.667Z,17.80
2018-01-29T13:07:26.624Z,17.80
2018-01-29T13:08:31.389Z,17.80
2018-01-29T13:09:36.512Z,17.80
2018-01-29T13:10:41.841Z,17.80
2018-01-29T13:11:46.680Z,17.80
2018-01-29T13:12:51.764Z,17.80
2018-01-29T13:13:56.646Z,17.80
2018-01-29T13:15:01.657Z,17.80
2018-01-29T13:16:06.500Z,17.80
2018-01-29T13:17:11.435Z,17.80
2018-01-29T13:18:16.468Z,17.80
2018-01-29T13:19:21.462Z,17.80
2018-01-29T13:20:26.387Z,17.80
2018-01-29T13:21:31.287Z,17.80
2018-01-29T13:22:36.187Z,17.80
2018-01-29T13:23:41.198Z,17.80
2018-01-29T13:24:46.205Z,17.80
2018-01-29T13:25:51.262Z,17.80
2018-01-29T13:26:56.152Z,17.80
2018-01-29T13:28:01.059Z,17.80
2018-01-29T13:29:06.173Z,17.80
2018-01-29T13:30:11.243Z,17.80
2018-01-29T13:31:16.232Z,17.80
2018-01-29T13:32:21.334Z,17.80
2018-01-29T13:33:29.264Z,17.80
2018-01-29T13:34:34.126Z,17.80
2018-01-29T13:35:39.246Z,17.80
2018-01-29T13:36:44.253Z,17.80
2018-01-29T13:37:49.247Z,17.80
2018-01-29T13:38:54.309Z,17.80
2018-01-29T13:39:59.342Z,17.80
2018-01-29T13:41:04.468Z,17.80
2018-01-29T13:42:09.342Z,17.80
2018-01-29T13:43:14.381Z,17.80
2018-01-29T13:44:19.466Z,17.80
2018-01-29T13:45:24.413Z,17.80
2018-01-29T13:46:29.423Z,17.80
2018-01-29T13:47:34.375Z,17.80
2018-01-29T13:48:39.186Z,17.80
2018-01-29T13:49:44.083Z,17.80
2018-01-29T13:50:49.154Z,17.80
2018-01-29T13:51:54.176Z,17.80
2018-01-29T13:52:59.176Z,17.80
2018-01-29T13:54:04.113Z,17.80
2018-01-29T13:55:09.030Z,17.80
2018-01-29T13:56:14.008Z,17.80
2018-01-29T13:57:18.892Z,17.80